createdAt,value
2023-05-16T00:01:53.321Z,7.00
2023-05-16T00:06:56.273Z,7.68
2023-05-16T00:11:59.967Z,7.50
2023-05-16T00:17:12.148Z,6.78
2023-05-16T00:22:16.408Z,8.27
2023-05-16T00:27:19.334Z,8.23
2023-05-16T00:32:22.431Z,8.68
2023-05-16T00:37:25.509Z,9.07
2023-05-16T00:42:30.352Z,6.53
2023-05-16T00:47:34.105Z,5.15
2023-05-16T00:52:37.201Z,5.30
2023-05-16T00:57:40.311Z,6.20
2023-05-16T01:02:43.863Z,6.32
2023-05-16T01:07:47.426Z,5.93
2023-05-16T01:13:07.628Z,5.90
2023-05-16T01:18:16.520Z,5.93
2023-05-16T01:23:52.331Z,5.40
2023-05-16T01:28:55.852Z,5.90
2023-05-16T01:33:58.746Z,5.07
2023-05-16T01:39:04.435Z,5.32
2023-05-16T01:44:12.296Z,5.20
2023-05-16T01:49:30.174Z,4.57
2023-05-16T01:54:34.124Z,4.30
2023-05-16T01:59:38.032Z,3.95
2023-05-16T02:04:40.997Z,3.70
2023-05-16T02:09:43.837Z,3.42
2023-05-16T02:14:47.778Z,3.30
2023-05-16T02:19:50.876Z,3.20
2023-05-16T02:24:53.790Z,2.90
2023-05-16T02:29:56.595Z,2.70
2023-05-16T02:34:59.537Z,3.10
2023-05-16T02:40:06.183Z,2.70
2023-05-16T02:45:09.755Z,3.15
2023-05-16T02:50:12.831Z,3.05
2023-05-16T02:55:22.264Z,3.38
2023-05-16T03:00:25.834Z,3.20
2023-05-16T03:05:28.986Z,1.30
2023-05-16T03:10:32.039Z,0.88
2023-05-16T03:15:34.825Z,0.88
2023-05-16T03:20:38.961Z,0.80
2023-05-16T03:25:43.589Z,0.90
2023-05-16T03:30:47.429Z,0.70
2023-05-16T03:35:51.229Z,0.60
2023-05-16T03:40:54.046Z,1.00
2023-05-16T03:45:57.302Z,0.80
2023-05-16T03:51:00.201Z,0.95
2023-05-16T03:56:03.154Z,0.70
2023-05-16T04:01:05.940Z,0.90
2023-05-16T04:06:09.255Z,0.85
2023-05-16T04:11:12.613Z,1.13
2023-05-16T04:16:15.518Z,0.82
2023-05-16T04:21:18.786Z,0.73
2023-05-16T04:26:22.969Z,1.38
2023-05-16T04:31:26.888Z,0.63
2023-05-16T04:36:30.597Z,0.80
2023-05-16T04:41:34.209Z,0.88
2023-05-16T04:46:37.236Z,0.85
2023-05-16T04:51:40.067Z,0.90
2023-05-16T04:56:43.011Z,1.05
2023-05-16T05:01:45.864Z,0.90
2023-05-16T05:06:49.269Z,0.88
2023-05-16T05:11:52.837Z,0.55
2023-05-16T05:16:55.878Z,1.15
2023-05-16T05:21:58.888Z,0.90
2023-05-16T05:27:01.828Z,0.70
2023-05-16T05:32:05.674Z,0.60
2023-05-16T05:37:08.783Z,0.70
2023-05-16T05:42:12.509Z,1.08
2023-05-16T05:47:16.014Z,0.98
2023-05-16T05:52:18.953Z,1.25
2023-05-16T05:57:22.036Z,0.75
2023-05-16T06:02:25.153Z,0.80
2023-05-16T06:07:28.125Z,0.80
2023-05-16T06:12:32.452Z,0.85
2023-05-16T06:17:35.424Z,0.60
2023-05-16T06:22:38.360Z,0.63
2023-05-16T06:27:41.225Z,0.65
2023-05-16T06:32:44.188Z,0.70
2023-05-16T06:37:47.056Z,1.20
2023-05-16T06:42:49.998Z,1.90
2023-05-16T06:47:57.213Z,0.60
2023-05-16T06:53:02.469Z,0.93
2023-05-16T06:58:05.356Z,1.30
2023-05-16T07:03:08.480Z,1.50
2023-05-16T07:08:12.730Z,1.85
2023-05-16T07:13:16.211Z,2.83
2023-05-16T07:18:19.176Z,3.10
2023-05-16T07:23:22.746Z,2.75
2023-05-16T07:28:25.710Z,2.92
2023-05-16T07:33:28.649Z,3.60
2023-05-16T07:38:31.904Z,3.97
2023-05-16T07:43:37.389Z,4.22
2023-05-16T07:53:43.023Z,3.00
2023-05-16T07:58:46.357Z,2.67
2023-05-16T08:03:49.472Z,1.85
2023-05-16T08:08:52.561Z,1.60
2023-05-16T08:13:55.463Z,1.50
2023-05-16T08:18:58.652Z,1.40
2023-05-16T08:24:01.552Z,1.42
2023-05-16T08:29:05.366Z,1.10
2023-05-16T08:34:09.829Z,1.05
2023-05-16T08:39:13.866Z,1.25
2023-05-16T08:44:22.375Z,0.95
2023-05-16T08:49:28.672Z,0.70
2023-05-16T08:54:31.675Z,1.63
2023-05-16T08:59:35.509Z,2.00
2023-05-16T09:04:39.390Z,1.80
2023-05-16T09:09:43.169Z,1.90
2023-05-16T09:14:47.837Z,1.88
2023-05-16T09:19:53.427Z,2.37
2023-05-16T09:24:56.437Z,3.35
2023-05-16T09:29:59.949Z,3.03
2023-05-16T09:35:02.828Z,1.75
2023-05-16T09:40:07.683Z,1.85
2023-05-16T09:45:14.648Z,1.60
2023-05-16T09:50:17.900Z,1.73
2023-05-16T09:55:20.820Z,1.65
2023-05-16T10:00:30.544Z,1.10
2023-05-16T10:05:35.073Z,1.00
2023-05-16T10:10:39.171Z,1.23
2023-05-16T10:15:42.561Z,1.17
2023-05-16T10:20:49.730Z,1.20
2023-05-16T10:25:52.871Z,1.98
2023-05-16T10:30:56.477Z,1.60
2023-05-16T10:35:59.682Z,1.30
2023-05-16T10:41:03.057Z,1.70
2023-05-16T10:46:10.994Z,1.23
2023-05-16T10:51:40.350Z,1.40
2023-05-16T10:56:43.887Z,3.58
2023-05-16T11:01:54.245Z,1.55
2023-05-16T11:06:58.874Z,2.00
2023-05-16T11:12:04.039Z,2.15
2023-05-16T11:17:15.596Z,1.90
2023-05-16T11:22:29.690Z,2.45
2023-05-16T11:27:40.196Z,2.60
2023-05-16T11:32:44.975Z,1.75
2023-05-16T11:37:48.275Z,1.60
2023-05-16T11:42:51.914Z,1.70
2023-05-16T11:47:55.250Z,2.42
2023-05-16T11:52:58.380Z,2.30
2023-05-16T11:58:02.469Z,2.47
2023-05-16T12:03:06.612Z,1.00
2023-05-16T12:08:11.406Z,1.63
2023-05-16T12:13:14.734Z,2.00
2023-05-16T12:18:17.896Z,1.70
2023-05-16T12:23:20.890Z,1.73
2023-05-16T12:28:23.995Z,1.98
2023-05-16T12:33:26.930Z,1.60
2023-05-16T12:38:29.949Z,1.33
2023-05-16T12:43:32.981Z,1.83
2023-05-16T12:48:36.169Z,1.35
2023-05-16T12:53:57.555Z,0.80
2023-05-16T12:59:14.917Z,2.15
2023-05-16T13:04:20.812Z,1.30
2023-05-16T13:09:24.228Z,1.25
2023-05-16T13:14:27.502Z,0.95
2023-05-16T13:19:32.163Z,1.00
2023-05-16T13:24:35.206Z,1.43
2023-05-16T13:29:38.175Z,0.82
2023-05-16T13:34:41.142Z,1.55
2023-05-16T13:39:44.057Z,1.67
2023-05-16T13:44:47.572Z,1.38
2023-05-16T13:49:51.263Z,1.45
2023-05-16T13:54:54.262Z,3.15
2023-05-16T14:00:24.989Z,3.47
2023-05-16T14:05:25.185Z,3.80
2023-05-16T14:10:28.902Z,4.13
2023-05-16T14:15:32.556Z,4.97
2023-05-16T14:20:36.440Z,3.88
2023-05-16T14:25:39.805Z,3.80
2023-05-16T14:30:43.020Z,3.40
2023-05-16T14:35:48.235Z,3.80
2023-05-16T14:40:56.667Z,4.13
2023-05-16T14:45:59.673Z,4.28
2023-05-16T14:51:04.991Z,4.50
2023-05-16T15:01:11.222Z,4.90
2023-05-16T15:06:14.167Z,3.80
2023-05-16T15:11:17.252Z,4.88
2023-05-16T15:16:20.297Z,4.55
2023-05-16T15:21:24.117Z,5.38
2023-05-16T15:26:27.177Z,5.65
2023-05-16T15:31:32.455Z,5.65
2023-05-16T15:42:05.387Z,5.65
2023-05-16T15:47:04.219Z,7.60
2023-05-16T15:52:07.230Z,7.40
2023-05-16T15:57:10.216Z,7.15
2023-05-16T16:02:13.420Z,6.82
2023-05-16T16:07:16.610Z,6.10
2023-05-16T16:12:19.707Z,6.45
2023-05-16T16:17:22.734Z,6.65
2023-05-16T16:22:25.652Z,8.10
2023-05-16T16:27:28.588Z,7.07
2023-05-16T16:32:31.635Z,6.47
2023-05-16T16:37:35.201Z,6.55
2023-05-16T16:42:39.085Z,6.50
2023-05-16T16:47:42.289Z,5.45
2023-05-16T16:52:45.222Z,5.57
2023-05-16T16:57:48.153Z,6.45
2023-05-16T17:02:51.211Z,5.80
2023-05-16T17:07:54.332Z,6.60
2023-05-16T17:13:03.256Z,8.82
2023-05-16T17:18:09.219Z,7.63
2023-05-16T17:23:12.277Z,6.18
2023-05-16T17:28:15.404Z,6.28
2023-05-16T17:33:19.737Z,5.95
2023-05-16T17:38:22.627Z,5.85
2023-05-16T17:43:26.082Z,5.97
2023-05-16T17:48:29.110Z,5.68
2023-05-16T17:53:32.020Z,5.68
2023-05-16T17:58:35.069Z,6.28
2023-05-16T18:03:38.192Z,6.03
2023-05-16T18:08:41.170Z,5.72
2023-05-16T18:13:44.561Z,6.03
2023-05-16T18:18:47.786Z,5.65
2023-05-16T18:23:50.707Z,5.72
2023-05-16T18:28:53.657Z,4.90
2023-05-16T18:33:56.630Z,4.95
2023-05-16T18:38:59.576Z,5.22
2023-05-16T18:44:02.578Z,5.20
2023-05-16T18:49:05.867Z,5.20
2023-05-16T18:54:08.825Z,5.70
2023-05-16T18:59:11.695Z,4.88
2023-05-16T19:04:14.715Z,5.47
2023-05-16T19:09:17.630Z,4.95
2023-05-16T19:14:21.000Z,5.38
2023-05-16T19:19:24.088Z,4.78
2023-05-16T19:24:27.334Z,5.05
2023-05-16T19:29:30.415Z,4.70
2023-05-16T19:34:33.619Z,3.97
2023-05-16T19:39:36.603Z,4.40
2023-05-16T19:44:39.533Z,4.35
2023-05-16T19:49:42.440Z,3.75
2023-05-16T19:54:45.479Z,3.83
2023-05-16T19:59:48.368Z,3.90
2023-05-16T20:04:51.424Z,2.90
2023-05-16T20:09:54.336Z,3.30
2023-05-16T20:14:57.358Z,3.70
2023-05-16T20:20:00.606Z,3.03
2023-05-16T20:25:03.874Z,3.22
2023-05-16T20:30:07.993Z,3.10
2023-05-16T20:35:11.706Z,3.30
2023-05-16T20:40:14.578Z,3.50
2023-05-16T20:45:17.475Z,3.10
2023-05-16T20:50:20.426Z,2.53
2023-05-16T20:55:23.858Z,2.60
2023-05-16T21:00:27.012Z,2.50
2023-05-16T21:05:29.995Z,2.42
2023-05-16T21:10:33.047Z,1.55
2023-05-16T21:15:36.027Z,2.85
2023-05-16T21:20:38.966Z,2.83
2023-05-16T21:25:41.913Z,2.28
2023-05-16T21:30:44.809Z,2.10
2023-05-16T21:35:47.855Z,2.25
2023-05-16T21:40:50.772Z,2.13
2023-05-16T21:45:53.886Z,1.80
2023-05-16T21:50:56.794Z,1.98
2023-05-16T21:56:00.215Z,1.70
2023-05-16T22:01:03.160Z,1.90
2023-05-16T22:06:06.604Z,0.85
2023-05-16T22:11:10.699Z,1.00
2023-05-16T22:16:13.655Z,1.60
2023-05-16T22:21:20.558Z,1.60
2023-05-16T22:26:23.531Z,1.40
2023-05-16T22:31:26.723Z,1.25
2023-05-16T22:36:29.814Z,1.42
2023-05-16T22:41:32.749Z,1.30
2023-05-16T22:46:35.764Z,1.38
2023-05-16T22:51:40.789Z,1.27
2023-05-16T22:56:44.030Z,1.15
2023-05-16T23:01:47.017Z,1.08
2023-05-16T23:06:49.977Z,0.82
2023-05-16T23:11:52.958Z,1.05
2023-05-16T23:16:56.007Z,1.00
2023-05-16T23:21:58.847Z,1.30
2023-05-16T23:27:01.754Z,0.95
2023-05-16T23:32:05.153Z,0.73
2023-05-16T23:37:08.081Z,0.82
2023-05-16T23:42:11.041Z,1.23
2023-05-16T23:47:13.962Z,0.95
2023-05-16T23:52:16.845Z,1.00
2023-05-16T23:57:19.745Z,1.00
